createdAt,value
2023-02-11T00:00:42.628Z,100.00
2023-02-11T00:03:09.550Z,100.00
2023-02-11T00:05:36.042Z,100.00
2023-02-11T00:08:02.507Z,100.00
2023-02-11T00:10:29.012Z,100.00
2023-02-11T00:12:56.407Z,100.00
2023-02-11T00:15:23.113Z,100.00
2023-02-11T00:17:49.644Z,100.00
2023-02-11T00:20:16.217Z,100.00
2023-02-11T00:22:42.794Z,100.00
2023-02-11T00:25:09.302Z,100.00
2023-02-11T00:27:37.038Z,100.00
2023-02-11T00:30:05.264Z,100.00
2023-02-11T00:32:32.049Z,100.00
2023-02-11T00:34:58.552Z,100.00
2023-02-11T00:37:25.047Z,100.00
2023-02-11T00:39:51.529Z,100.00
2023-02-11T00:42:18.044Z,100.00
2023-02-11T00:44:45.041Z,100.00
2023-02-11T00:47:11.572Z,100.00
2023-02-11T00:49:40.231Z,100.00
2023-02-11T00:52:06.777Z,100.00
2023-02-11T00:54:34.390Z,100.00
2023-02-11T00:57:01.000Z,100.00
2023-02-11T00:59:27.477Z,100.00
2023-02-11T01:01:54.143Z,100.00
2023-02-11T01:04:20.576Z,100.00
2023-02-11T01:06:47.569Z,100.00
2023-02-11T01:09:14.069Z,100.00
2023-02-11T01:11:40.559Z,100.00
2023-02-11T01:14:07.272Z,100.00
2023-02-11T01:16:33.880Z,100.00
2023-02-11T01:19:00.497Z,100.00
2023-02-11T01:21:27.290Z,100.00
2023-02-11T01:23:53.782Z,100.00
2023-02-11T01:26:20.609Z,100.00
2023-02-11T01:28:47.667Z,100.00
2023-02-11T01:31:15.091Z,100.00
2023-02-11T01:33:42.086Z,100.00
2023-02-11T01:36:11.341Z,100.00
2023-02-11T01:38:40.091Z,100.00
2023-02-11T01:41:10.418Z,100.00
2023-02-11T01:43:45.078Z,100.00
2023-02-11T01:46:29.260Z,100.00
2023-02-11T01:49:16.255Z,100.00
2023-02-11T01:51:56.390Z,100.00
2023-02-11T01:54:44.784Z,100.00
2023-02-11T01:57:24.741Z,100.00
2023-02-11T02:00:21.681Z,100.00
2023-02-11T02:03:01.381Z,100.00
2023-02-11T02:05:44.381Z,100.00
2023-02-11T02:08:32.056Z,100.00
2023-02-11T02:11:00.880Z,100.00
2023-02-11T02:13:30.997Z,100.00
2023-02-11T02:16:03.436Z,100.00
2023-02-11T02:19:02.799Z,100.00
2023-02-11T02:22:20.395Z,100.00
2023-02-11T02:25:00.995Z,100.00
2023-02-11T02:27:48.918Z,100.00
2023-02-11T02:30:30.592Z,100.00
2023-02-11T02:33:24.167Z,100.00
2023-02-11T02:36:07.877Z,100.00
2023-02-11T02:38:43.420Z,100.00
2023-02-11T02:41:15.569Z,100.00
2023-02-11T02:43:45.699Z,100.00
2023-02-11T02:46:17.528Z,100.00
2023-02-11T02:48:45.755Z,100.00
2023-02-11T02:51:43.228Z,100.00
2023-02-11T02:54:21.763Z,100.00
2023-02-11T02:57:22.181Z,100.00
2023-02-11T03:00:06.971Z,100.00
2023-02-11T03:02:42.302Z,100.00
2023-02-11T03:05:31.551Z,100.00
2023-02-11T03:08:11.100Z,100.00
2023-02-11T03:10:43.104Z,100.00
2023-02-11T03:13:10.618Z,100.00
2023-02-11T03:15:44.385Z,100.00
2023-02-11T03:18:15.508Z,100.00
2023-02-11T03:20:45.063Z,100.00
2023-02-11T03:23:19.258Z,100.00
2023-02-11T03:25:50.944Z,100.00
2023-02-11T03:28:31.142Z,100.00
2023-02-11T03:31:34.054Z,100.00
2023-02-11T03:34:12.614Z,100.00
2023-02-11T03:36:45.859Z,100.00
2023-02-11T03:39:16.637Z,100.00
2023-02-11T03:41:46.058Z,100.00
2023-02-11T03:44:15.932Z,100.00
2023-02-11T03:46:47.825Z,100.00
2023-02-11T03:49:16.925Z,100.00
2023-02-11T03:51:44.002Z,100.00
2023-02-11T03:54:15.211Z,100.00
2023-02-11T03:56:49.826Z,100.00
2023-02-11T03:59:16.318Z,100.00
2023-02-11T04:01:42.779Z,100.00
2023-02-11T04:04:09.302Z,100.00
2023-02-11T04:06:35.766Z,100.00
2023-02-11T04:09:02.884Z,100.00
2023-02-11T04:11:29.414Z,100.00
2023-02-11T04:13:55.871Z,100.00
2023-02-11T04:16:22.588Z,100.00
2023-02-11T04:18:49.165Z,100.00
2023-02-11T04:21:15.621Z,100.00
2023-02-11T04:23:42.061Z,100.00
2023-02-11T04:26:08.536Z,100.00
2023-02-11T04:28:36.244Z,100.00
2023-02-11T04:31:02.875Z,100.00
2023-02-11T04:33:29.380Z,100.00
2023-02-11T04:35:55.904Z,100.00
2023-02-11T04:38:24.081Z,100.00
2023-02-11T04:40:50.969Z,100.00
2023-02-11T04:43:17.482Z,100.00
2023-02-11T04:45:43.990Z,100.00
2023-02-11T04:48:10.510Z,100.00
2023-02-11T04:50:37.029Z,100.00
2023-02-11T04:53:03.506Z,100.00
2023-02-11T04:55:29.964Z,100.00
2023-02-11T04:57:56.434Z,100.00
2023-02-11T05:00:22.976Z,100.00
2023-02-11T05:02:49.471Z,100.00
2023-02-11T05:05:16.195Z,100.00
2023-02-11T05:07:43.047Z,100.00
2023-02-11T05:10:09.763Z,100.00
2023-02-11T05:12:36.231Z,100.00
2023-02-11T05:15:02.718Z,100.00
2023-02-11T05:17:29.179Z,100.00
2023-02-11T05:19:55.742Z,100.00
2023-02-11T05:22:22.362Z,100.00
2023-02-11T05:24:48.860Z,100.00
2023-02-11T05:27:15.335Z,100.00
2023-02-11T05:29:41.754Z,100.00
2023-02-11T05:32:09.037Z,100.00
2023-02-11T05:34:36.379Z,100.00
2023-02-11T05:37:02.940Z,100.00
2023-02-11T05:39:29.366Z,100.00
2023-02-11T05:41:55.860Z,100.00
2023-02-11T05:44:22.365Z,100.00
2023-02-11T05:46:49.352Z,100.00
2023-02-11T05:49:16.948Z,100.00
2023-02-11T05:51:43.598Z,100.00
2023-02-11T05:54:10.492Z,100.00
2023-02-11T05:56:37.025Z,100.00
2023-02-11T05:59:03.541Z,100.00
2023-02-11T06:01:30.196Z,100.00
2023-02-11T06:03:57.066Z,100.00
2023-02-11T06:06:23.634Z,100.00
2023-02-11T06:08:50.144Z,100.00
2023-02-11T06:11:17.695Z,100.00
2023-02-11T06:13:44.276Z,100.00
2023-02-11T06:16:10.879Z,100.00
2023-02-11T06:18:37.495Z,100.00
2023-02-11T06:21:07.866Z,100.00
2023-02-11T06:23:34.343Z,100.00
2023-02-11T06:26:05.838Z,100.00
2023-02-11T06:28:32.952Z,100.00
2023-02-11T06:31:06.589Z,100.00
2023-02-11T06:33:34.379Z,100.00
2023-02-11T06:36:01.152Z,100.00
2023-02-11T06:38:28.244Z,100.00
2023-02-11T06:40:54.847Z,100.00
2023-02-11T06:43:21.418Z,100.00
2023-02-11T06:45:55.814Z,100.00
2023-02-11T06:48:23.621Z,100.00
2023-02-11T06:50:50.078Z,100.00
2023-02-11T06:53:16.545Z,100.00
2023-02-11T06:55:43.192Z,100.00
2023-02-11T06:58:09.705Z,100.00
2023-02-11T07:00:36.858Z,100.00
2023-02-11T07:03:03.606Z,100.00
2023-02-11T07:05:30.530Z,100.00
2023-02-11T07:07:57.355Z,100.00
2023-02-11T07:10:23.826Z,100.00
2023-02-11T07:12:50.289Z,100.00
2023-02-11T07:15:16.741Z,100.00
2023-02-11T07:17:43.361Z,100.00
2023-02-11T07:20:12.400Z,100.00
2023-02-11T07:22:38.907Z,100.00
2023-02-11T07:25:06.254Z,100.00
2023-02-11T07:27:33.161Z,100.00
2023-02-11T07:29:59.609Z,100.00
2023-02-11T07:32:26.139Z,100.00
2023-02-11T07:34:52.667Z,100.00
2023-02-11T07:37:19.818Z,100.00
2023-02-11T07:39:46.259Z,100.00
2023-02-11T07:42:12.790Z,100.00
2023-02-11T07:44:39.246Z,100.00
2023-02-11T07:47:05.782Z,100.00
2023-02-11T07:49:32.369Z,100.00
2023-02-11T07:51:58.873Z,100.00
2023-02-11T07:54:25.332Z,100.00
2023-02-11T07:56:51.964Z,100.00
2023-02-11T07:59:18.719Z,100.00
2023-02-11T08:01:45.508Z,100.00
2023-02-11T08:04:12.075Z,100.00
2023-02-11T08:06:42.266Z,99.65
2023-02-11T08:09:14.026Z,98.89
2023-02-11T08:11:41.332Z,96.55
2023-02-11T08:14:08.815Z,95.95
2023-02-11T08:16:36.484Z,96.25
2023-02-11T08:19:07.312Z,96.54
2023-02-11T08:21:34.045Z,95.04
2023-02-11T08:24:03.036Z,94.80
2023-02-11T08:26:31.852Z,94.62
2023-02-11T08:28:59.368Z,94.85
2023-02-11T08:31:28.935Z,94.40
2023-02-11T08:33:58.102Z,94.00
2023-02-11T08:36:30.647Z,92.56
2023-02-11T08:39:17.653Z,90.57
2023-02-11T08:41:48.646Z,90.03
2023-02-11T08:44:15.146Z,87.74
2023-02-11T08:46:41.604Z,86.93
2023-02-11T08:49:08.119Z,86.01
2023-02-11T08:51:34.600Z,84.49
2023-02-11T08:54:01.684Z,84.73
2023-02-11T08:56:31.042Z,83.35
2023-02-11T08:58:57.650Z,83.37
2023-02-11T09:01:27.087Z,82.44
2023-02-11T09:03:54.341Z,80.52
2023-02-11T09:06:22.653Z,79.25
2023-02-11T09:08:51.323Z,80.02
2023-02-11T09:11:20.702Z,81.06
2023-02-11T09:13:47.289Z,79.87
2023-02-11T09:16:23.487Z,79.06
2023-02-11T09:18:50.465Z,78.39
2023-02-11T09:21:19.069Z,77.51
2023-02-11T09:23:47.960Z,77.19
2023-02-11T09:26:26.167Z,76.98
2023-02-11T09:28:53.180Z,76.37
2023-02-11T09:31:22.444Z,78.24
2023-02-11T09:33:51.265Z,78.29
2023-02-11T09:36:24.184Z,79.14
2023-02-11T09:38:51.225Z,80.38
2023-02-11T09:41:24.046Z,80.93
2023-02-11T09:43:57.165Z,80.97
2023-02-11T09:46:25.730Z,81.07
2023-02-11T09:48:55.288Z,81.09
2023-02-11T09:51:36.191Z,80.47
2023-02-11T09:54:13.044Z,81.49
2023-02-11T09:56:39.859Z,81.69
2023-02-11T09:59:13.807Z,82.60
2023-02-11T10:01:50.365Z,83.13
2023-02-11T10:04:53.221Z,83.00
2023-02-11T10:07:37.011Z,82.08
2023-02-11T10:10:28.407Z,81.36
2023-02-11T10:13:04.033Z,80.32
2023-02-11T10:15:39.336Z,80.86
2023-02-11T10:18:33.484Z,81.08
2023-02-11T10:21:21.788Z,81.10
2023-02-11T10:23:52.483Z,81.05
2023-02-11T10:26:20.318Z,81.05
2023-02-11T10:28:54.259Z,80.27
2023-02-11T10:31:31.378Z,80.03
2023-02-11T10:34:09.279Z,79.47
2023-02-11T10:36:38.877Z,79.12
2023-02-11T10:39:14.509Z,81.52
2023-02-11T10:41:55.054Z,80.25
2023-02-11T10:44:32.176Z,79.27
2023-02-11T10:47:05.107Z,81.71
2023-02-11T10:49:37.749Z,80.48
2023-02-11T10:52:13.602Z,78.82
2023-02-11T10:54:40.458Z,73.88
2023-02-11T10:57:07.752Z,70.07
2023-02-11T10:59:40.542Z,72.53
2023-02-11T11:02:24.584Z,72.58
2023-02-11T11:04:57.276Z,73.40
2023-02-11T11:07:28.202Z,72.83
2023-02-11T11:09:56.939Z,69.87
2023-02-11T11:12:43.606Z,69.39
2023-02-11T11:15:10.488Z,65.68
2023-02-11T11:17:38.245Z,62.49
2023-02-11T11:20:15.560Z,65.28
2023-02-11T11:22:43.649Z,68.87
2023-02-11T11:25:24.353Z,67.54
2023-02-11T11:27:54.150Z,70.13
2023-02-11T11:30:23.429Z,69.95
2023-02-11T11:32:50.160Z,72.21
2023-02-11T11:35:28.118Z,70.55
2023-02-11T11:38:03.200Z,71.93
2023-02-11T11:40:32.209Z,71.69
2023-02-11T11:43:15.467Z,72.22
2023-02-11T11:45:59.253Z,74.13
2023-02-11T11:48:37.881Z,73.42
2023-02-11T11:51:07.039Z,73.16
2023-02-11T11:53:53.636Z,74.62
2023-02-11T11:56:22.792Z,73.04
2023-02-11T11:58:50.251Z,73.41
2023-02-11T12:01:35.433Z,73.43
2023-02-11T12:04:23.487Z,74.39
2023-02-11T12:07:05.394Z,73.94
2023-02-11T12:09:53.235Z,75.83
2023-02-11T12:12:32.758Z,74.44
2023-02-11T12:15:08.385Z,74.59
2023-02-11T12:17:47.151Z,75.00
2023-02-11T12:20:33.442Z,74.25
2023-02-11T12:23:27.925Z,74.62
2023-02-11T12:26:15.053Z,75.85
2023-02-11T12:29:05.947Z,77.43
2023-02-11T12:31:59.837Z,77.37
2023-02-11T12:34:52.661Z,77.71
2023-02-11T12:37:46.705Z,78.61
2023-02-11T12:40:18.982Z,79.83
2023-02-11T12:43:16.475Z,80.38
2023-02-11T12:46:27.168Z,80.32
2023-02-11T12:49:02.729Z,81.70
2023-02-11T12:51:55.180Z,80.21
2023-02-11T12:54:35.883Z,80.11
2023-02-11T12:57:23.029Z,78.90
2023-02-11T13:00:07.475Z,78.94
2023-02-11T13:02:54.274Z,80.99
2023-02-11T13:05:29.754Z,79.39
2023-02-11T13:08:04.672Z,81.59
2023-02-11T13:10:38.027Z,81.84
2023-02-11T13:13:18.225Z,82.62
2023-02-11T13:16:07.966Z,82.67
2023-02-11T13:18:40.573Z,83.75
2023-02-11T13:21:16.369Z,84.89
2023-02-11T13:24:08.085Z,83.93
2023-02-11T13:26:41.151Z,84.02
2023-02-11T13:29:30.081Z,84.53
2023-02-11T13:32:06.456Z,83.90
2023-02-11T13:34:41.980Z,83.71
2023-02-11T13:37:23.592Z,83.25
2023-02-11T13:40:19.396Z,84.11
2023-02-11T13:42:53.285Z,84.92
2023-02-11T13:45:43.620Z,83.95
2023-02-11T13:48:32.714Z,84.27
2023-02-11T13:51:02.910Z,84.69
2023-02-11T13:53:30.364Z,84.58
2023-02-11T13:56:22.946Z,87.04
2023-02-11T13:58:51.205Z,86.65
2023-02-11T14:01:42.669Z,87.83
2023-02-11T14:04:45.157Z,86.55
2023-02-11T14:07:51.324Z,85.59
2023-02-11T14:10:42.865Z,85.47
2023-02-11T14:13:27.820Z,86.43
2023-02-11T14:16:06.889Z,85.01
2023-02-11T14:18:39.823Z,85.59
2023-02-11T14:21:31.259Z,84.72
2023-02-11T14:24:11.776Z,85.45
2023-02-11T14:26:59.781Z,85.02
2023-02-11T14:30:03.648Z,85.03
2023-02-11T14:32:56.825Z,84.96
2023-02-11T14:35:35.955Z,87.03
2023-02-11T14:38:35.123Z,86.71
2023-02-11T14:41:06.627Z,87.49
2023-02-11T14:43:46.275Z,87.41
2023-02-11T14:46:15.844Z,87.27
2023-02-11T14:48:46.769Z,87.58
2023-02-11T14:51:23.403Z,86.34
2023-02-11T14:53:53.090Z,88.13
2023-02-11T14:56:26.346Z,87.12
2023-02-11T14:58:55.290Z,88.08
2023-02-11T15:01:38.267Z,87.21
2023-02-11T15:04:21.457Z,88.14
2023-02-11T15:06:51.443Z,89.17
2023-02-11T15:09:20.437Z,88.72
2023-02-11T15:11:49.476Z,89.03
2023-02-11T15:14:18.917Z,88.73
2023-02-11T15:16:50.789Z,88.92
2023-02-11T15:19:30.343Z,89.45
2023-02-11T15:21:59.312Z,88.38
2023-02-11T15:24:29.641Z,89.03
2023-02-11T15:27:08.367Z,88.37
2023-02-11T15:29:39.263Z,88.24
2023-02-11T15:32:12.474Z,89.40
2023-02-11T15:34:39.222Z,89.52
2023-02-11T15:37:06.272Z,90.05
2023-02-11T15:39:37.455Z,90.48
2023-02-11T15:42:24.306Z,89.89
2023-02-11T15:45:21.079Z,91.37
2023-02-11T15:47:53.854Z,90.45
2023-02-11T15:50:23.528Z,91.86
2023-02-11T15:52:50.750Z,91.61
2023-02-11T15:55:18.636Z,92.03
2023-02-11T15:57:56.194Z,91.56
2023-02-11T16:00:25.402Z,92.43
2023-02-11T16:02:53.251Z,93.24
2023-02-11T16:05:35.174Z,93.75
2023-02-11T16:08:19.937Z,93.29
2023-02-11T16:10:58.881Z,93.13
2023-02-11T16:13:28.119Z,94.21
2023-02-11T16:16:03.894Z,93.70
2023-02-11T16:18:51.990Z,93.25
2023-02-11T16:21:39.464Z,93.82
2023-02-11T16:24:08.059Z,93.63
2023-02-11T16:26:39.325Z,93.56
2023-02-11T16:29:27.431Z,95.49
2023-02-11T16:32:05.401Z,96.65
2023-02-11T16:34:31.963Z,96.58
2023-02-11T16:36:58.627Z,96.72
2023-02-11T16:39:25.146Z,97.29
2023-02-11T16:41:51.850Z,96.98
2023-02-11T16:44:18.758Z,97.68
2023-02-11T16:46:45.946Z,97.44
2023-02-11T16:49:21.940Z,96.62
2023-02-11T16:51:51.514Z,96.50
2023-02-11T16:54:18.739Z,97.14
2023-02-11T16:56:45.950Z,97.20
2023-02-11T16:59:12.977Z,96.70
2023-02-11T17:01:41.454Z,96.61
2023-02-11T17:04:23.580Z,96.71
2023-02-11T17:06:50.588Z,96.83
2023-02-11T17:09:23.439Z,96.56
2023-02-11T17:11:50.358Z,96.81
2023-02-11T17:14:17.979Z,97.21
2023-02-11T17:16:46.310Z,97.46
2023-02-11T17:19:15.896Z,97.10
2023-02-11T17:21:43.773Z,97.39
2023-02-11T17:24:10.823Z,97.53
2023-02-11T17:26:38.825Z,97.21
2023-02-11T17:29:06.986Z,97.54
2023-02-11T17:31:34.040Z,98.99
2023-02-11T17:34:00.606Z,98.54
2023-02-11T17:36:27.268Z,96.34
2023-02-11T17:38:55.740Z,95.85
2023-02-11T17:41:22.628Z,97.37
2023-02-11T17:43:49.368Z,98.01
2023-02-11T17:46:15.958Z,98.37
2023-02-11T17:48:43.011Z,99.16
2023-02-11T17:51:31.593Z,99.13
2023-02-11T17:54:00.760Z,99.03
2023-02-11T17:56:27.605Z,99.38
2023-02-11T17:58:54.118Z,99.60
2023-02-11T18:01:20.967Z,99.58
2023-02-11T18:03:47.925Z,99.08
2023-02-11T18:06:15.177Z,99.28
2023-02-11T18:08:43.176Z,100.00
2023-02-11T18:11:11.595Z,100.00
2023-02-11T18:13:38.585Z,100.00
2023-02-11T18:16:08.397Z,100.00
2023-02-11T18:18:35.595Z,100.00
2023-02-11T18:21:08.867Z,100.00
2023-02-11T18:23:36.288Z,100.00
2023-02-11T18:26:07.350Z,100.00
2023-02-11T18:28:34.112Z,100.00
2023-02-11T18:31:01.297Z,100.00
2023-02-11T18:33:29.686Z,100.00
2023-02-11T18:35:57.043Z,100.00
2023-02-11T18:38:24.063Z,100.00
2023-02-11T18:40:52.244Z,100.00
2023-02-11T18:43:20.070Z,100.00
2023-02-11T18:45:48.217Z,99.50
2023-02-11T18:48:15.534Z,100.00
2023-02-11T18:50:44.443Z,100.00
2023-02-11T18:53:12.719Z,100.00
2023-02-11T18:55:40.843Z,97.92
2023-02-11T18:58:07.427Z,98.71
2023-02-11T19:00:35.046Z,99.42
2023-02-11T19:03:01.612Z,100.00
2023-02-11T19:05:33.497Z,100.00
2023-02-11T19:08:01.233Z,100.00
2023-02-11T19:10:28.452Z,100.00
2023-02-11T19:12:56.393Z,100.00
2023-02-11T19:15:23.180Z,100.00
2023-02-11T19:17:49.745Z,100.00
2023-02-11T19:20:16.867Z,100.00
2023-02-11T19:22:43.606Z,99.15
2023-02-11T19:25:11.273Z,98.38
2023-02-11T19:27:41.576Z,98.39
2023-02-11T19:30:10.355Z,99.38
2023-02-11T19:32:37.388Z,100.00
2023-02-11T19:35:04.265Z,100.00
2023-02-11T19:37:30.795Z,100.00
2023-02-11T19:39:57.346Z,100.00
2023-02-11T19:42:26.553Z,100.00
2023-02-11T19:44:54.284Z,100.00
2023-02-11T19:47:27.542Z,100.00
2023-02-11T19:49:54.499Z,100.00
2023-02-11T19:52:21.046Z,100.00
2023-02-11T19:54:47.529Z,100.00
2023-02-11T19:57:14.052Z,100.00
2023-02-11T19:59:40.874Z,100.00
2023-02-11T20:02:08.031Z,100.00
2023-02-11T20:04:34.675Z,100.00
2023-02-11T20:07:01.156Z,100.00
2023-02-11T20:09:29.012Z,100.00
2023-02-11T20:11:55.545Z,100.00
2023-02-11T20:14:22.144Z,100.00
2023-02-11T20:16:50.109Z,100.00
2023-02-11T20:19:19.988Z,100.00
2023-02-11T20:21:48.387Z,100.00
2023-02-11T20:24:17.129Z,100.00
2023-02-11T20:26:45.185Z,100.00
2023-02-11T20:29:12.426Z,100.00
2023-02-11T20:31:39.175Z,100.00
2023-02-11T20:34:05.807Z,100.00
2023-02-11T20:36:35.639Z,100.00
2023-02-11T20:39:04.809Z,100.00
2023-02-11T20:41:34.342Z,100.00
2023-02-11T20:44:04.556Z,100.00
2023-02-11T20:46:33.207Z,100.00
2023-02-11T20:49:00.244Z,100.00
2023-02-11T20:51:29.978Z,100.00
2023-02-11T20:53:57.174Z,100.00
2023-02-11T20:56:27.178Z,100.00
2023-02-11T20:58:53.979Z,100.00
2023-02-11T21:01:29.537Z,100.00
2023-02-11T21:04:07.851Z,100.00
2023-02-11T21:06:37.146Z,100.00
2023-02-11T21:09:06.304Z,100.00
2023-02-11T21:11:32.804Z,100.00
2023-02-11T21:13:59.880Z,100.00
2023-02-11T21:16:27.116Z,100.00
2023-02-11T21:18:55.358Z,100.00
2023-02-11T21:21:22.335Z,100.00
2023-02-11T21:23:48.877Z,100.00
2023-02-11T21:26:16.972Z,100.00
2023-02-11T21:28:44.044Z,100.00
2023-02-11T21:31:19.908Z,100.00
2023-02-11T21:33:46.579Z,100.00
2023-02-11T21:36:15.002Z,100.00
2023-02-11T21:38:41.921Z,100.00
2023-02-11T21:41:08.702Z,100.00
2023-02-11T21:43:35.238Z,100.00
2023-02-11T21:46:12.196Z,100.00
2023-02-11T21:48:38.684Z,100.00
2023-02-11T21:51:07.864Z,100.00
2023-02-11T21:53:35.506Z,100.00
2023-02-11T21:56:06.048Z,100.00
2023-02-11T21:58:33.162Z,100.00
2023-02-11T22:00:59.867Z,100.00
2023-02-11T22:03:26.717Z,100.00
2023-02-11T22:05:54.034Z,100.00
2023-02-11T22:08:20.773Z,100.00
2023-02-11T22:10:47.317Z,100.00
2023-02-11T22:13:13.883Z,100.00
2023-02-11T22:15:40.438Z,100.00
2023-02-11T22:18:07.074Z,100.00
2023-02-11T22:20:33.667Z,100.00
2023-02-11T22:23:00.209Z,100.00
2023-02-11T22:25:26.730Z,100.00
2023-02-11T22:27:53.314Z,100.00
2023-02-11T22:30:20.132Z,100.00
2023-02-11T22:32:47.420Z,100.00
2023-02-11T22:35:14.109Z,100.00
2023-02-11T22:37:40.726Z,100.00
2023-02-11T22:40:07.933Z,100.00
2023-02-11T22:42:34.636Z,100.00
2023-02-11T22:45:01.229Z,100.00
2023-02-11T22:47:27.752Z,100.00
2023-02-11T22:49:54.268Z,100.00
2023-02-11T22:52:22.348Z,100.00
2023-02-11T22:54:51.285Z,100.00
2023-02-11T22:57:17.752Z,100.00
2023-02-11T22:59:44.372Z,100.00
2023-02-11T23:02:11.130Z,100.00
2023-02-11T23:04:37.716Z,100.00
2023-02-11T23:07:04.211Z,100.00
2023-02-11T23:09:30.693Z,100.00
2023-02-11T23:11:57.838Z,100.00
2023-02-11T23:14:24.450Z,100.00
2023-02-11T23:16:51.488Z,100.00
2023-02-11T23:19:18.119Z,100.00
2023-02-11T23:21:44.651Z,100.00
2023-02-11T23:24:14.135Z,100.00
2023-02-11T23:26:42.927Z,100.00
2023-02-11T23:29:10.760Z,100.00
2023-02-11T23:31:40.542Z,100.00
2023-02-11T23:34:08.691Z,100.00
2023-02-11T23:36:35.376Z,100.00
2023-02-11T23:39:02.376Z,100.00
2023-02-11T23:41:29.025Z,100.00
2023-02-11T23:43:57.465Z,100.00
2023-02-11T23:46:25.636Z,100.00
2023-02-11T23:48:53.196Z,100.00
2023-02-11T23:51:21.102Z,100.00
2023-02-11T23:53:49.908Z,100.00
2023-02-11T23:56:19.625Z,100.00
2023-02-11T23:58:51.050Z,100.00
